Time;durP1;ratioP1;P1;durP2;ratioP2;P2;SDS_P1;SDS_P2;PMS_P1;PMS_P2;Temp;Humidity;BMP_temperature;BMP_pressure;BME280_temperature;BME280_humidity;BME280_pressure;Samples;Min_cycle;Max_cycle;Signal;HPM_P1;HPM_P2
2021/01/11 00:02:25;;;;;;;30.60;18.25;;;3.50;75.20;;;;;;5014513;28;20152;-59
2021/01/11 00:04:51;;;;;;;26.98;16.38;;;3.50;75.00;;;;;;5014437;28;20017;-59
2021/01/11 00:07:17;;;;;;;27.23;16.77;;;3.60;75.00;;;;;;5014550;28;20387;-59
2021/01/11 00:09:43;;;;;;;24.58;15.60;;;3.60;74.70;;;;;;5014071;28;20018;-59
2021/01/11 00:12:09;;;;;;;26.77;16.73;;;3.60;74.60;;;;;;5014496;28;20030;-60
2021/01/11 00:14:34;;;;;;;28.48;16.48;;;3.50;74.60;;;;;;5014280;28;20029;-59
2021/01/11 00:17:00;;;;;;;23.30;15.20;;;3.50;74.70;;;;;;5014310;28;20030;-57
2021/01/11 00:19:26;;;;;;;23.60;15.23;;;3.50;74.60;;;;;;5013759;28;20529;-60
2021/01/11 00:21:52;;;;;;;27.52;15.90;;;3.50;74.60;;;;;;5013904;28;20109;-59
2021/01/11 00:24:18;;;;;;;24.58;15.15;;;3.40;74.60;;;;;;5013844;28;20097;-59
2021/01/11 00:26:53;;;;;;;21.75;13.68;;;3.40;74.60;;;;;;5013913;28;20018;-59
2021/01/11 00:29:20;;;;;;;21.70;14.35;;;3.40;74.50;;;;;;5013844;28;20125;-59
2021/01/11 00:31:45;;;;;;;23.27;13.88;;;3.30;74.40;;;;;;5013728;28;20442;-59
2021/01/11 00:34:11;;;;;;;26.83;14.75;;;3.30;74.70;;;;;;5013954;28;20109;-59
2021/01/11 00:36:38;;;;;;;23.98;14.10;;;3.30;74.70;;;;;;5013958;28;20026;-59
2021/01/11 00:39:04;;;;;;;26.25;15.38;;;3.30;74.80;;;;;;5013613;28;20025;-60
2021/01/11 00:41:30;;;;;;;28.65;16.58;;;3.30;74.70;;;;;;5013506;28;20363;-59
2021/01/11 00:43:56;;;;;;;29.33;17.15;;;3.20;74.80;;;;;;5013565;28;20022;-59
2021/01/11 00:46:27;;;;;;;27.77;17.58;;;3.20;75.00;;;;;;5013676;28;20029;-60
2021/01/11 00:48:53;;;;;;;27.53;15.63;;;3.20;74.90;;;;;;5013360;28;20049;-59
2021/01/11 00:51:19;;;;;;;27.08;15.43;;;3.20;75.00;;;;;;5013444;28;20030;-59
2021/01/11 00:53:45;;;;;;;23.45;13.88;;;3.20;74.80;;;;;;5013400;28;20054;-59
2021/01/11 00:56:12;;;;;;;21.85;13.23;;;3.20;74.80;;;;;;5013568;28;20497;-60
2021/01/11 00:58:38;;;;;;;24.38;14.07;;;3.20;74.70;;;;;;5013396;28;20030;-60
2021/01/11 01:01:04;;;;;;;25.25;14.68;;;3.20;74.60;;;;;;5013644;28;20021;-59
2021/01/11 01:03:30;;;;;;;27.50;15.68;;;3.20;74.80;;;;;;5013377;28;20109;-60
2021/01/11 01:05:55;;;;;;;26.45;16.73;;;3.20;74.70;;;;;;5013030;28;20084;-60
2021/01/11 01:08:21;;;;;;;26.92;16.17;;;3.20;74.70;;;;;;5013317;28;20030;-59
2021/01/11 01:10:47;;;;;;;25.83;15.65;;;3.20;74.70;;;;;;5013233;28;20030;-59
2021/01/11 01:13:12;;;;;;;26.02;15.43;;;3.20;74.60;;;;;;5013144;28;20033;-60
2021/01/11 01:15:38;;;;;;;24.92;14.68;;;3.20;74.40;;;;;;5013410;28;20108;-58
2021/01/11 01:18:04;;;;;;;25.65;15.63;;;3.20;74.40;;;;;;5010729;28;20028;-60
2021/01/11 01:20:30;;;;;;;24.38;14.52;;;3.20;74.20;;;;;;5013245;28;20386;-59
2021/01/11 01:22:55;;;;;;;23.58;14.77;;;3.20;74.20;;;;;;5012949;28;20025;-59
2021/01/11 01:25:21;;;;;;;24.45;14.63;;;3.20;74.20;;;;;;5013180;28;20359;-58
2021/01/11 01:27:47;;;;;;;24.48;14.27;;;3.20;74.20;;;;;;5012807;28;20050;-58
2021/01/11 01:30:13;;;;;;;22.17;13.73;;;3.30;74.50;;;;;;5013417;28;20026;-60
2021/01/11 01:32:40;;;;;;;22.10;14.30;;;3.30;74.50;;;;;;5012987;28;20014;-58
2021/01/11 01:35:06;;;;;;;23.50;14.32;;;3.30;74.50;;;;;;5012804;28;20450;-60
2021/01/11 01:37:32;;;;;;;20.02;14.10;;;3.30;74.50;;;;;;5012845;28;20034;-59
2021/01/11 01:39:57;;;;;;;22.98;14.43;;;3.30;74.40;;;;;;5004401;28;20030;-59
2021/01/11 01:42:23;;;;;;;20.95;13.02;;;3.30;74.60;;;;;;5012714;28;20382;-58
2021/01/11 01:44:49;;;;;;;19.17;12.07;;;3.30;74.50;;;;;;5012781;28;20026;-59
2021/01/11 01:47:15;;;;;;;20.42;13.27;;;3.30;74.60;;;;;;5012955;28;20472;-60
2021/01/11 01:49:41;;;;;;;17.33;11.02;;;3.30;74.50;;;;;;5012735;28;20069;-58
2021/01/11 01:52:08;;;;;;;17.27;11.32;;;3.30;74.50;;;;;;5012733;28;20061;-58
2021/01/11 01:54:35;;;;;;;15.80;10.45;;;3.30;74.30;;;;;;5013222;28;20061;-59
2021/01/11 01:57:03;;;;;;;13.70;9.00;;;3.30;74.40;;;;;;5012950;28;20026;-59
2021/01/11 01:59:29;;;;;;;10.80;7.93;;;3.30;74.50;;;;;;5012692;28;20386;-58
2021/01/11 02:01:55;;;;;;;13.10;7.88;;;3.20;73.70;;;;;;5012839;28;20029;-60
2021/01/11 02:04:21;;;;;;;10.45;7.13;;;3.20;73.50;;;;;;5012663;28;20021;-60
2021/01/11 02:06:52;;;;;;;9.70;6.40;;;3.10;73.30;;;;;;5012769;28;20492;-59
2021/01/11 02:09:33;;;;;;;9.35;6.85;;;3.10;73.10;;;;;;5012477;28;20024;-59
2021/01/11 02:12:08;;;;;;;12.50;7.15;;;3.10;73.40;;;;;;5002915;28;20041;-58
2021/01/11 02:14:51;;;;;;;11.85;6.85;;;3.10;73.50;;;;;;5012098;28;20517;-59
2021/01/11 02:17:25;;;;;;;11.05;6.93;;;3.00;73.50;;;;;;5011524;28;20026;-59
2021/01/11 02:20:09;;;;;;;8.55;6.03;;;3.00;73.50;;;;;;5014400;28;20022;-59
2021/01/11 02:23:22;;;;;;;8.23;6.10;;;3.00;73.50;;;;;;5014324;28;20156;-59
2021/01/11 02:26:05;;;;;;;8.55;5.97;;;3.00;73.50;;;;;;5005880;28;20097;-59
2021/01/11 02:28:49;;;;;;;9.07;6.15;;;3.00;73.80;;;;;;5014004;28;20045;-60
2021/01/11 02:31:16;;;;;;;9.07;6.50;;;3.00;73.40;;;;;;5014218;28;20018;-59
2021/01/11 02:33:45;;;;;;;9.45;6.05;;;3.00;73.50;;;;;;5015756;28;20109;-60
2021/01/11 02:36:12;;;;;;;8.13;5.45;;;3.10;73.60;;;;;;5015978;28;20025;-59
2021/01/11 02:38:38;;;;;;;8.05;5.35;;;3.10;73.70;;;;;;5015878;28;20052;-59
2021/01/11 02:41:04;;;;;;;7.68;5.20;;;3.10;73.30;;;;;;5014847;28;20070;-58
2021/01/11 02:43:30;;;;;;;8.73;5.40;;;3.10;73.20;;;;;;5015774;28;20417;-57
2021/01/11 02:45:56;;;;;;;8.02;5.28;;;3.10;73.00;;;;;;5015901;28;20075;-59
2021/01/11 02:48:34;;;;;;;9.55;6.50;;;3.10;73.40;;;;;;5015673;28;20029;-59
2021/01/11 02:51:19;;;;;;;7.65;5.50;;;3.10;72.80;;;;;;5012704;28;20025;-60
2021/01/11 02:54:17;;;;;;;7.30;5.57;;;3.10;72.90;;;;;;5015917;28;20022;-58
2021/01/11 02:56:42;;;;;;;7.63;5.43;;;3.20;73.00;;;;;;5015595;28;20097;-58
2021/01/11 02:59:14;;;;;;;6.85;5.10;;;3.20;73.00;;;;;;5015433;28;20118;-59
2021/01/11 03:02:14;;;;;;;6.53;5.43;;;3.30;72.90;;;;;;5015969;28;20033;-57
2021/01/11 03:04:41;;;;;;;8.05;5.60;;;3.30;72.50;;;;;;5019172;28;20042;-59
2021/01/11 03:07:09;;;;;;;7.80;5.82;;;3.20;72.20;;;;;;5015358;28;20076;-60
2021/01/11 03:09:38;;;;;;;8.18;5.45;;;3.20;72.20;;;;;;5015172;28;20080;-59
2021/01/11 03:12:04;;;;;;;6.28;4.65;;;3.20;72.30;;;;;;5015522;28;20037;-59
2021/01/11 03:14:30;;;;;;;7.75;4.88;;;3.30;72.50;;;;;;5015229;28;20466;-59
2021/01/11 03:16:56;;;;;;;6.78;4.97;;;3.30;72.00;;;;;;5015500;28;20036;-58
2021/01/11 03:19:22;;;;;;;8.32;5.30;;;3.30;71.90;;;;;;5015064;28;20097;-58
2021/01/11 03:21:48;;;;;;;6.82;4.95;;;3.30;72.00;;;;;;5015235;28;20467;-58
2021/01/11 03:24:18;;;;;;;6.70;4.80;;;3.30;72.10;;;;;;5015082;28;20072;-59
2021/01/11 03:26:45;;;;;;;8.18;5.05;;;3.30;71.90;;;;;;5015138;28;20394;-59
2021/01/11 03:29:12;;;;;;;6.85;5.10;;;3.40;72.00;;;;;;5014822;28;20520;-60
2021/01/11 03:31:39;;;;;;;7.07;5.18;;;3.40;71.90;;;;;;5001530;28;20443;-59
2021/01/11 03:34:05;;;;;;;6.82;4.70;;;3.40;71.60;;;;;;5015364;28;20049;-60
2021/01/11 03:36:31;;;;;;;6.72;4.90;;;3.50;71.50;;;;;;5014805;28;20030;-58
2021/01/11 03:38:57;;;;;;;6.93;5.30;;;3.50;71.50;;;;;;5014815;28;20096;-58
2021/01/11 03:41:22;;;;;;;7.72;5.07;;;3.50;71.20;;;;;;5014338;28;20070;-60
2021/01/11 03:43:48;;;;;;;7.45;5.20;;;3.50;71.20;;;;;;5014836;28;20529;-60
2021/01/11 03:46:16;;;;;;;6.97;5.40;;;3.50;71.10;;;;;;5014593;28;20094;-58
2021/01/11 03:48:43;;;;;;;7.97;5.65;;;3.60;70.80;;;;;;5014585;28;20030;-58
2021/01/11 03:51:09;;;;;;;7.68;5.30;;;3.60;70.60;;;;;;5014952;28;20029;-59
2021/01/11 03:53:36;;;;;;;7.72;5.25;;;3.60;70.60;;;;;;5014739;28;20033;-60
2021/01/11 03:56:08;;;;;;;9.93;6.35;;;3.60;70.50;;;;;;5014590;28;20041;-58
2021/01/11 03:58:34;;;;;;;8.48;5.40;;;3.60;70.40;;;;;;5014459;28;20496;-59
2021/01/11 04:01:00;;;;;;;7.90;5.40;;;3.60;70.20;;;;;;5000724;28;20030;-58
2021/01/11 04:03:26;;;;;;;8.57;5.35;;;3.50;70.00;;;;;;5014452;28;20033;-58
2021/01/11 04:05:53;;;;;;;6.63;4.88;;;3.50;70.10;;;;;;5014289;28;20059;-60
2021/01/11 04:08:19;;;;;;;6.80;4.82;;;3.50;70.70;;;;;;5014659;28;20049;-58
2021/01/11 04:10:45;;;;;;;7.53;5.38;;;3.50;70.00;;;;;;5013905;28;20053;-59
2021/01/11 04:13:11;;;;;;;7.95;5.00;;;3.50;70.00;;;;;;5014413;28;20037;-59
2021/01/11 04:15:36;;;;;;;7.03;5.35;;;3.50;69.90;;;;;;5013980;28;20034;-59
2021/01/11 04:18:03;;;;;;;8.90;6.15;;;3.50;69.90;;;;;;5013896;28;20042;-60
2021/01/11 04:20:29;;;;;;;8.23;6.15;;;3.50;69.70;;;;;;5014112;28;20425;-60
2021/01/11 04:22:55;;;;;;;9.60;6.95;;;3.50;69.80;;;;;;5013866;28;20105;-59
2021/01/11 04:25:23;;;;;;;11.77;7.28;;;3.50;70.10;;;;;;5013989;28;20401;-59
2021/01/11 04:27:49;;;;;;;9.88;7.18;;;3.50;70.10;;;;;;5013773;28;20608;-59
2021/01/11 04:30:15;;;;;;;11.68;8.10;;;3.50;70.10;;;;;;5013972;28;20097;-59
2021/01/11 04:32:41;;;;;;;11.52;7.28;;;3.50;70.10;;;;;;5013717;28;20034;-58
2021/01/11 04:35:11;;;;;;;10.13;7.45;;;3.50;70.10;;;;;;5013950;28;20018;-59
2021/01/11 04:37:37;;;;;;;13.30;8.40;;;3.50;70.20;;;;;;5014105;28;20030;-60
2021/01/11 04:40:05;;;;;;;11.27;7.40;;;3.50;70.30;;;;;;5012809;28;20026;-58
2021/01/11 04:42:53;;;;;;;11.55;7.68;;;3.50;70.20;;;;;;5013842;28;20473;-58
2021/01/11 04:45:20;;;;;;;11.15;6.97;;;3.50;70.40;;;;;;5000983;28;20478;-60
2021/01/11 04:47:55;;;;;;;10.45;7.07;;;3.50;70.20;;;;;;5013827;28;20029;-59
2021/01/11 04:50:22;;;;;;;10.82;7.32;;;3.50;70.30;;;;;;5013521;28;20037;-59
2021/01/11 04:52:48;;;;;;;9.73;6.82;;;3.50;70.40;;;;;;5013614;28;20104;-58
2021/01/11 04:55:14;;;;;;;14.50;8.23;;;3.50;70.40;;;;;;5013636;28;20437;-59
2021/01/11 04:57:56;;;;;;;13.38;7.95;;;3.50;70.10;;;;;;5013457;28;20113;-58
2021/01/11 05:00:27;;;;;;;13.15;8.23;;;3.50;70.30;;;;;;5013383;28;20101;-58
2021/01/11 05:02:57;;;;;;;9.02;6.47;;;3.50;70.30;;;;;;5013444;28;20030;-59
2021/01/11 05:05:23;;;;;;;8.30;5.03;;;3.50;70.30;;;;;;5013286;28;20545;-59
2021/01/11 05:07:49;;;;;;;6.65;4.75;;;3.40;70.20;;;;;;5013650;28;20104;-59
2021/01/11 05:10:26;;;;;;;7.75;4.95;;;3.40;70.20;;;;;;5013298;28;20029;-57
2021/01/11 05:13:03;;;;;;;6.88;4.93;;;3.40;70.00;;;;;;5013301;28;20083;-58
2021/01/11 05:15:31;;;;;;;6.93;4.75;;;3.40;70.00;;;;;;5013305;28;20112;-57
2021/01/11 05:17:58;;;;;;;6.32;4.43;;;3.30;70.00;;;;;;5013369;28;20018;-58
2021/01/11 05:20:29;;;;;;;7.60;4.97;;;3.30;69.90;;;;;;5012779;28;20034;-59
2021/01/11 05:22:59;;;;;;;6.07;4.95;;;3.20;69.90;;;;;;5012767;28;20022;-58
2021/01/11 05:25:27;;;;;;;6.53;4.40;;;3.20;69.60;;;;;;5013466;28;20382;-59
2021/01/11 05:28:22;;;;;;;5.80;4.47;;;3.10;69.50;;;;;;5013027;28;20057;-59
2021/01/11 05:30:49;;;;;;;7.97;4.97;;;3.10;69.50;;;;;;5016680;28;20482;-58
2021/01/11 05:33:25;;;;;;;8.10;4.75;;;3.00;69.70;;;;;;5012951;28;20022;-58
2021/01/11 05:36:02;;;;;;;7.97;4.35;;;2.90;69.80;;;;;;5013311;28;20049;-59
2021/01/11 05:38:36;;;;;;;6.00;4.63;;;2.90;69.80;;;;;;4999915;28;20022;-57
2021/01/11 05:41:22;;;;;;;6.97;4.60;;;2.80;70.00;;;;;;5012824;28;20026;-58
2021/01/11 05:44:08;;;;;;;5.85;4.28;;;2.80;69.90;;;;;;5001572;28;20030;-59
2021/01/11 05:46:34;;;;;;;6.20;4.25;;;2.70;69.90;;;;;;5013218;28;20018;-60
2021/01/11 05:49:11;;;;;;;7.00;4.57;;;2.70;69.90;;;;;;5012752;28;20469;-58
2021/01/11 05:51:37;;;;;;;6.25;4.47;;;2.70;70.00;;;;;;5014440;28;20026;-57
2021/01/11 05:54:04;;;;;;;6.28;4.60;;;2.60;70.00;;;;;;5017026;28;20144;-59
2021/01/11 05:56:52;;;;;;;5.78;4.47;;;2.60;70.10;;;;;;5016796;28;20362;-57
2021/01/11 05:59:18;;;;;;;5.40;4.50;;;2.60;70.00;;;;;;5003271;28;20436;-58
2021/01/11 06:01:43;;;;;;;6.43;4.50;;;2.60;70.10;;;;;;5016962;28;20141;-60
2021/01/11 06:04:09;;;;;;;7.28;4.45;;;2.60;70.30;;;;;;5016557;28;20034;-58
2021/01/11 06:06:35;;;;;;;6.72;4.38;;;2.70;70.20;;;;;;5016612;28;20026;-58
2021/01/11 06:09:00;;;;;;;6.47;4.57;;;2.70;70.20;;;;;;5016082;28;20037;-58
2021/01/11 06:11:27;;;;;;;5.30;4.35;;;2.70;70.10;;;;;;5016637;28;20374;-59
2021/01/11 06:13:56;;;;;;;6.55;4.28;;;2.70;70.00;;;;;;5016568;28;20483;-59
2021/01/11 06:16:24;;;;;;;5.05;4.00;;;2.70;70.00;;;;;;5016402;28;20026;-58
2021/01/11 06:18:51;;;;;;;5.82;4.22;;;2.80;70.00;;;;;;5012230;28;20034;-58
2021/01/11 06:21:18;;;;;;;5.70;4.20;;;2.80;69.90;;;;;;5015681;28;20047;-59
2021/01/11 06:23:44;;;;;;;7.35;5.25;;;2.80;69.70;;;;;;5011620;28;20026;-59
2021/01/11 06:26:25;;;;;;;6.43;4.40;;;2.70;69.50;;;;;;5015989;28;20105;-57
2021/01/11 06:28:51;;;;;;;6.03;4.35;;;2.80;69.30;;;;;;5015689;28;20046;-59
2021/01/11 06:31:18;;;;;;;5.97;4.10;;;2.80;69.50;;;;;;5009339;28;20084;-59
2021/01/11 06:33:44;;;;;;;5.18;3.95;;;2.80;69.50;;;;;;5011174;28;20029;-58
2021/01/11 06:36:30;;;;;;;5.47;4.00;;;2.80;69.40;;;;;;5012146;28;20080;-59
2021/01/11 06:38:56;;;;;;;4.45;3.45;;;2.80;69.30;;;;;;5009912;28;20458;-59
2021/01/11 06:41:28;;;;;;;5.35;3.72;;;2.80;69.20;;;;;;5013313;28;20022;-58
2021/01/11 06:44:06;;;;;;;5.47;4.15;;;2.80;69.10;;;;;;5010175;28;20157;-59
2021/01/11 06:46:32;;;;;;;5.75;3.65;;;2.80;69.20;;;;;;5008693;28;20041;-60
2021/01/11 06:49:03;;;;;;;4.95;3.70;;;2.80;68.70;;;;;;5011720;28;20026;-59
2021/01/11 06:51:33;;;;;;;5.30;4.05;;;2.80;68.80;;;;;;5006982;28;20058;-60
2021/01/11 06:54:12;;;;;;;4.80;3.90;;;2.80;68.80;;;;;;5006326;28;20112;-59
2021/01/11 06:56:39;;;;;;;5.20;3.78;;;2.80;68.80;;;;;;5009478;28;20120;-59
2021/01/11 06:59:11;;;;;;;5.65;4.07;;;2.80;68.70;;;;;;5003793;28;20398;-58
2021/01/11 07:01:40;;;;;;;5.50;3.90;;;2.80;68.50;;;;;;5012569;28;20033;-57
2021/01/11 07:04:07;;;;;;;5.22;3.80;;;2.70;68.20;;;;;;5006516;28;20034;-58
2021/01/11 07:06:41;;;;;;;6.35;4.30;;;2.70;68.40;;;;;;5009248;28;20087;-57
2021/01/11 07:09:18;;;;;;;6.05;4.03;;;2.60;68.30;;;;;;5002814;28;20059;-56
2021/01/11 07:11:45;;;;;;;4.45;3.90;;;2.50;68.50;;;;;;5000359;28;20068;-59
2021/01/11 07:14:12;;;;;;;5.38;3.97;;;2.40;68.80;;;;;;5005409;28;20042;-58
2021/01/11 07:16:39;;;;;;;5.63;3.60;;;2.40;69.20;;;;;;5008555;28;20030;-58
2021/01/11 07:19:05;;;;;;;5.38;3.95;;;2.40;69.30;;;;;;5004363;28;20038;-58
2021/01/11 07:21:31;;;;;;;5.65;4.13;;;2.40;69.40;;;;;;5005544;28;20030;-59
2021/01/11 07:23:59;;;;;;;5.13;3.85;;;2.40;69.30;;;;;;5007639;28;20026;-60
2021/01/11 07:26:26;;;;;;;5.55;4.07;;;2.40;69.10;;;;;;5005623;28;20057;-58
2021/01/11 07:29:00;;;;;;;5.93;4.10;;;2.50;69.10;;;;;;5001819;28;20111;-60
2021/01/11 07:31:34;;;;;;;5.45;3.67;;;2.50;69.20;;;;;;5003517;28;20569;-57
2021/01/11 07:34:11;;;;;;;5.90;4.32;;;2.50;68.90;;;;;;5000844;28;20026;-57
2021/01/11 07:36:39;;;;;;;6.35;4.18;;;2.50;68.90;;;;;;5005311;28;20104;-58
2021/01/11 07:39:14;;;;;;;6.32;4.13;;;2.50;69.10;;;;;;5001557;28;20026;-57
2021/01/11 07:41:44;;;;;;;6.45;4.22;;;2.50;69.40;;;;;;5004152;28;20029;-60
2021/01/11 07:44:12;;;;;;;4.97;3.75;;;2.50;69.10;;;;;;5004846;28;20018;-55
2021/01/11 07:46:38;;;;;;;5.35;4.00;;;2.50;69.10;;;;;;5006172;28;20113;-59
2021/01/11 07:49:15;;;;;;;7.32;4.60;;;2.50;69.00;;;;;;5009929;28;20104;-59
2021/01/11 07:51:43;;;;;;;6.05;4.35;;;2.60;68.90;;;;;;5004218;28;20575;-59
2021/01/11 07:54:22;;;;;;;5.53;4.25;;;2.50;69.00;;;;;;5004002;28;20030;-60
2021/01/11 07:56:49;;;;;;;5.97;4.20;;;2.60;69.10;;;;;;5008597;28;20025;-60
2021/01/11 07:59:15;;;;;;;5.85;4.25;;;2.60;69.20;;;;;;5007985;28;20525;-58
2021/01/11 08:01:43;;;;;;;6.32;4.43;;;2.70;69.60;;;;;;5002905;28;20037;-60
2021/01/11 08:04:10;;;;;;;8.38;4.32;;;2.70;69.00;;;;;;5005138;28;20022;-58
2021/01/11 08:07:09;;;;;;;5.68;4.32;;;2.80;68.90;;;;;;5005973;28;20094;-58
2021/01/11 08:09:36;;;;;;;4.60;3.80;;;2.80;68.60;;;;;;5002830;28;20433;-57
2021/01/11 08:12:16;;;;;;;5.47;3.85;;;2.80;68.70;;;;;;5004320;28;20371;-59
2021/01/11 08:14:46;;;;;;;6.80;4.30;;;2.80;68.80;;;;;;4999848;28;20053;-59
2021/01/11 08:17:16;;;;;;;6.50;4.60;;;2.80;68.80;;;;;;5001988;28;20112;-58
2021/01/11 08:19:48;;;;;;;5.55;4.25;;;2.90;68.80;;;;;;5000503;28;20084;-60
2021/01/11 08:22:17;;;;;;;5.05;3.60;;;2.90;68.80;;;;;;5004768;28;20493;-59
2021/01/11 08:24:43;;;;;;;6.50;4.20;;;2.90;68.80;;;;;;5000465;28;20036;-59
2021/01/11 08:27:17;;;;;;;6.45;4.28;;;2.90;68.80;;;;;;5002733;28;20103;-59
2021/01/11 08:29:43;;;;;;;5.82;3.90;;;3.00;68.50;;;;;;5002231;28;20038;-59
2021/01/11 08:32:11;;;;;;;5.18;4.18;;;3.00;68.50;;;;;;5006197;28;20459;-59
2021/01/11 08:34:38;;;;;;;5.15;3.92;;;3.00;68.30;;;;;;4996334;28;20037;-59
2021/01/11 08:37:30;;;;;;;6.57;4.57;;;3.10;68.50;;;;;;5002037;28;20903;-58
2021/01/11 08:39:59;;;;;;;6.43;4.25;;;3.10;68.40;;;;;;5000952;28;20057;-57
2021/01/11 08:42:29;;;;;;;6.22;3.92;;;3.10;68.50;;;;;;5000594;28;20095;-58
2021/01/11 08:44:55;;;;;;;5.97;4.70;;;3.10;68.10;;;;;;4992720;28;20175;-58
2021/01/11 08:47:28;;;;;;;5.25;4.30;;;3.10;68.30;;;;;;4994644;28;20176;-58
2021/01/11 08:50:02;;;;;;;8.98;4.55;;;3.10;68.00;;;;;;4995116;28;20057;-58
2021/01/11 08:52:32;;;;;;;7.35;4.80;;;3.10;68.00;;;;;;4995905;28;20157;-58
2021/01/11 08:55:12;;;;;;;6.10;4.38;;;3.20;68.00;;;;;;4998902;28;20030;-59
2021/01/11 08:57:39;;;;;;;6.13;4.43;;;3.20;68.10;;;;;;4988582;28;20520;-59
2021/01/11 09:00:12;;;;;;;7.85;4.68;;;3.20;68.30;;;;;;4980444;28;20584;-59
2021/01/11 09:02:48;;;;;;;5.10;3.75;;;3.20;68.00;;;;;;4994420;28;20474;-60
2021/01/11 09:05:19;;;;;;;6.25;4.43;;;3.20;68.20;;;;;;4997220;28;20054;-59
2021/01/11 09:07:45;;;;;;;7.28;4.70;;;3.20;68.20;;;;;;4998126;28;20614;-57
2021/01/11 09:10:18;;;;;;;5.70;4.47;;;3.20;68.10;;;;;;4997129;28;20130;-59
2021/01/11 09:12:44;;;;;;;7.50;4.80;;;3.20;68.00;;;;;;5000388;28;20053;-58
2021/01/11 09:15:10;;;;;;;5.18;4.20;;;3.20;68.20;;;;;;5001630;28;20120;-58
2021/01/11 09:17:36;;;;;;;5.60;4.32;;;3.30;68.20;;;;;;4996083;28;20043;-59
2021/01/11 09:20:07;;;;;;;7.15;4.45;;;3.30;68.10;;;;;;4995683;28;20505;-59
2021/01/11 09:22:40;;;;;;;5.88;4.13;;;3.30;68.00;;;;;;4995999;28;20498;-59
2021/01/11 09:25:11;;;;;;;5.68;4.25;;;3.30;68.00;;;;;;4997476;28;20038;-58
2021/01/11 09:27:39;;;;;;;7.57;4.63;;;3.30;68.30;;;;;;5002384;28;20428;-58
2021/01/11 09:30:07;;;;;;;7.25;4.53;;;3.40;68.10;;;;;;4999455;28;20045;-60
2021/01/11 09:32:33;;;;;;;6.80;4.88;;;3.40;68.20;;;;;;4991370;28;20038;-59
2021/01/11 09:34:59;;;;;;;6.68;4.22;;;3.40;68.10;;;;;;4992105;28;20041;-59
2021/01/11 09:37:25;;;;;;;5.68;4.20;;;3.40;68.10;;;;;;4996000;28;20056;-59
2021/01/11 09:39:51;;;;;;;8.55;5.13;;;3.50;68.10;;;;;;4995512;28;20034;-58
2021/01/11 09:42:17;;;;;;;5.80;4.40;;;3.50;67.90;;;;;;4994451;28;20034;-57
2021/01/11 09:44:44;;;;;;;6.40;4.63;;;3.50;68.10;;;;;;5000787;28;20402;-57
2021/01/11 09:47:10;;;;;;;5.47;4.15;;;3.60;68.00;;;;;;4993797;28;20038;-59
2021/01/11 09:49:36;;;;;;;8.40;5.60;;;3.60;67.80;;;;;;4997927;28;20131;-59
2021/01/11 09:52:03;;;;;;;6.47;4.50;;;3.60;67.80;;;;;;4995660;28;20090;-58
2021/01/11 09:54:29;;;;;;;6.47;4.80;;;3.60;67.80;;;;;;4995655;28;20034;-59
2021/01/11 09:56:58;;;;;;;6.50;4.45;;;3.50;67.70;;;;;;4994465;28;20037;-60
2021/01/11 09:59:24;;;;;;;11.98;5.43;;;3.60;67.70;;;;;;4988723;28;20045;-60
2021/01/11 10:01:50;;;;;;;6.35;4.40;;;3.60;67.80;;;;;;4997115;28;20048;-59
2021/01/11 10:04:17;;;;;;;5.70;4.30;;;3.60;67.70;;;;;;4999293;28;20026;-57
2021/01/11 10:06:48;;;;;;;5.80;4.20;;;3.60;67.90;;;;;;4994177;28;20487;-59
2021/01/11 10:09:19;;;;;;;7.30;5.00;;;3.60;67.80;;;;;;4998966;28;20026;-59
2021/01/11 10:11:50;;;;;;;7.13;4.32;;;3.60;67.90;;;;;;4998552;28;20033;-58
2021/01/11 10:14:16;;;;;;;7.05;4.50;;;3.70;67.90;;;;;;4996405;28;20540;-58
2021/01/11 10:16:43;;;;;;;7.68;4.57;;;3.70;67.90;;;;;;4996611;28;20038;-60
2021/01/11 10:19:13;;;;;;;6.72;4.28;;;3.70;67.80;;;;;;4996436;28;20124;-59
2021/01/11 10:21:39;;;;;;;5.85;4.20;;;3.70;67.70;;;;;;4993749;28;20025;-59
2021/01/11 10:24:06;;;;;;;6.20;4.70;;;3.70;67.60;;;;;;4992379;28;20033;-59
2021/01/11 10:26:33;;;;;;;6.38;4.65;;;3.70;67.40;;;;;;4997842;28;20477;-59
2021/01/11 10:28:59;;;;;;;5.55;4.45;;;3.70;67.60;;;;;;4996442;28;20061;-59
2021/01/11 10:31:24;;;;;;;6.68;4.90;;;3.70;67.70;;;;;;4997121;28;20062;-59
2021/01/11 10:33:50;;;;;;;8.73;5.28;;;3.70;67.60;;;;;;4995371;28;20506;-59
2021/01/11 10:36:16;;;;;;;6.03;4.40;;;3.60;67.70;;;;;;4993772;28;20038;-59
2021/01/11 10:38:43;;;;;;;7.82;5.35;;;3.60;67.80;;;;;;4999573;28;20149;-59
2021/01/11 10:41:14;;;;;;;7.32;5.45;;;3.60;67.90;;;;;;4995199;28;20052;-60
2021/01/11 10:43:40;;;;;;;6.20;4.57;;;3.60;67.80;;;;;;4998970;28;20026;-59
2021/01/11 10:46:06;;;;;;;6.80;4.78;;;3.60;67.80;;;;;;4998274;28;20092;-58
2021/01/11 10:48:31;;;;;;;7.15;4.43;;;3.60;67.80;;;;;;4998361;28;20038;-59
2021/01/11 10:50:57;;;;;;;7.10;4.50;;;3.60;67.90;;;;;;4998642;28;20037;-59
2021/01/11 10:53:23;;;;;;;6.63;4.40;;;3.60;67.50;;;;;;4996618;28;20037;-59
2021/01/11 10:55:48;;;;;;;5.78;4.25;;;3.70;67.60;;;;;;4996063;28;20030;-57
2021/01/11 10:58:14;;;;;;;7.07;4.85;;;3.70;67.40;;;;;;5001064;28;20022;-57
2021/01/11 11:00:40;;;;;;;6.30;4.57;;;3.70;67.20;;;;;;4999032;28;20033;-59
2021/01/11 11:03:07;;;;;;;6.90;4.78;;;3.70;67.20;;;;;;5001266;28;20727;-59
2021/01/11 11:05:33;;;;;;;7.00;4.95;;;3.70;67.10;;;;;;4997531;28;20121;-58
2021/01/11 11:07:59;;;;;;;6.22;4.35;;;3.70;67.20;;;;;;5001836;28;20053;-59
2021/01/11 11:10:25;;;;;;;6.25;4.32;;;3.80;67.00;;;;;;4997809;28;20029;-59
2021/01/11 11:12:51;;;;;;;5.97;4.38;;;3.80;66.90;;;;;;4997840;28;20026;-57
2021/01/11 11:15:17;;;;;;;5.93;4.38;;;3.80;67.00;;;;;;5001295;28;20088;-58
2021/01/11 11:17:43;;;;;;;5.78;3.97;;;3.90;67.00;;;;;;4994322;28;20084;-59
2021/01/11 11:20:09;;;;;;;6.03;4.38;;;3.90;66.70;;;;;;4994979;28;20658;-59
2021/01/11 11:22:35;;;;;;;6.82;4.30;;;3.90;66.80;;;;;;4999239;28;20129;-58
2021/01/11 11:25:06;;;;;;;6.20;4.57;;;4.00;66.90;;;;;;5000201;28;20022;-58
2021/01/11 11:27:36;;;;;;;6.45;4.22;;;4.00;66.70;;;;;;4997329;28;20048;-59
2021/01/11 11:30:06;;;;;;;6.68;4.40;;;4.00;66.70;;;;;;5003004;28;20073;-59
2021/01/11 11:32:34;;;;;;;6.32;4.20;;;4.00;66.70;;;;;;4991348;28;20049;-60
2021/01/11 11:35:05;;;;;;;7.15;4.65;;;4.00;66.70;;;;;;4994974;28;20046;-59
2021/01/11 11:37:34;;;;;;;6.63;4.17;;;4.00;66.50;;;;;;4996059;28;20030;-59
2021/01/11 11:40:00;;;;;;;6.47;4.85;;;4.00;66.60;;;;;;4997533;28;20075;-57
2021/01/11 11:42:25;;;;;;;6.43;4.45;;;4.00;66.50;;;;;;4995372;28;20394;-59
2021/01/11 11:44:51;;;;;;;5.68;4.18;;;4.00;66.60;;;;;;5001891;28;20053;-59
2021/01/11 11:47:17;;;;;;;6.55;4.28;;;4.00;66.70;;;;;;4998006;28;20030;-59
2021/01/11 11:49:42;;;;;;;4.55;3.95;;;3.90;66.50;;;;;;4996413;28;20038;-58
2021/01/11 11:52:08;;;;;;;5.82;4.25;;;3.90;66.30;;;;;;5003182;28;20041;-58
2021/01/11 11:54:34;;;;;;;5.97;4.07;;;3.90;66.40;;;;;;4999510;28;20026;-59
2021/01/11 11:57:02;;;;;;;6.50;4.40;;;3.90;66.40;;;;;;4998733;28;20520;-59
2021/01/11 11:59:28;;;;;;;6.55;4.47;;;3.90;66.40;;;;;;5001282;28;20037;-59
2021/01/11 12:01:54;;;;;;;4.72;4.22;;;3.90;66.50;;;;;;5007058;28;20084;-59
2021/01/11 12:04:19;;;;;;;5.32;4.00;;;3.90;66.50;;;;;;4999213;28;20029;-58
2021/01/11 12:06:45;;;;;;;6.22;3.92;;;3.90;66.30;;;;;;4988622;28;20049;-59
2021/01/11 12:09:11;;;;;;;6.53;4.15;;;3.90;66.30;;;;;;4992963;28;20033;-59
2021/01/11 12:11:51;;;;;;;6.10;4.60;;;3.90;66.30;;;;;;4992223;28;20110;-60
2021/01/11 12:14:17;;;;;;;6.50;4.28;;;3.80;66.20;;;;;;4999509;28;20026;-61
2021/01/11 12:16:47;;;;;;;5.32;4.18;;;3.80;66.20;;;;;;5000038;28;20038;-59
2021/01/11 12:19:13;;;;;;;6.30;4.20;;;3.80;66.40;;;;;;4996421;28;20022;-60
2021/01/11 12:21:38;;;;;;;6.10;4.40;;;3.80;66.40;;;;;;4995915;28;20095;-58
2021/01/11 12:24:06;;;;;;;6.95;5.38;;;3.80;67.00;;;;;;4993007;28;20041;-60
2021/01/11 12:26:45;;;;;;;6.65;4.78;;;3.80;66.50;;;;;;4996518;28;20109;-60
2021/01/11 12:29:12;;;;;;;8.52;5.47;;;3.80;66.30;;;;;;4997722;28;20053;-60
2021/01/11 12:31:38;;;;;;;6.10;4.68;;;3.80;66.50;;;;;;4995824;28;20085;-60
2021/01/11 12:34:05;;;;;;;7.25;5.15;;;3.80;66.50;;;;;;4995277;28;20034;-59
2021/01/11 12:36:33;;;;;;;7.35;5.00;;;3.80;66.50;;;;;;4996015;28;20038;-60
2021/01/11 12:39:00;;;;;;;7.80;5.82;;;3.80;66.50;;;;;;4997439;28;20066;-59
2021/01/11 12:41:27;;;;;;;8.13;5.85;;;3.80;66.50;;;;;;4999864;28;20117;-59
2021/01/11 12:43:53;;;;;;;7.00;5.00;;;3.80;66.30;;;;;;5000074;28;20433;-60
2021/01/11 12:46:21;;;;;;;8.60;5.63;;;3.80;67.10;;;;;;4999718;28;20038;-60
2021/01/11 12:48:48;;;;;;;8.50;5.88;;;3.80;66.40;;;;;;5000737;28;20104;-59
2021/01/11 12:51:19;;;;;;;7.97;5.95;;;3.80;66.40;;;;;;4997975;28;20040;-60
2021/01/11 12:53:50;;;;;;;10.10;5.97;;;3.80;66.50;;;;;;5000162;28;20030;-60
2021/01/11 12:56:23;;;;;;;7.28;5.43;;;3.80;66.40;;;;;;4999877;28;20553;-60
2021/01/11 12:58:50;;;;;;;7.18;5.65;;;3.80;66.70;;;;;;5001713;28;20033;-60
2021/01/11 13:01:29;;;;;;;7.38;5.75;;;3.80;66.50;;;;;;4994006;28;20117;-60
2021/01/11 13:03:57;;;;;;;8.48;6.15;;;3.90;66.50;;;;;;4992281;28;20033;-60